createdAt,value
2018-06-04T00:01:08.607Z,21.82
2018-06-04T00:03:37.060Z,21.74
2018-06-04T00:06:05.554Z,21.66
2018-06-04T00:08:34.006Z,21.63
2018-06-04T00:11:02.462Z,21.62
2018-06-04T00:13:30.882Z,21.47
2018-06-04T00:15:59.911Z,21.40
2018-06-04T00:18:28.975Z,21.31
2018-06-04T00:20:57.457Z,21.38
2018-06-04T00:23:25.910Z,21.45
2018-06-04T00:25:54.747Z,21.51
2018-06-04T00:28:23.220Z,21.48
2018-06-04T00:30:51.718Z,21.52
2018-06-04T00:33:20.200Z,21.50
2018-06-04T00:35:49.185Z,21.41
2018-06-04T00:38:17.593Z,21.33
2018-06-04T00:40:46.383Z,21.25
2018-06-04T00:43:14.844Z,21.24
2018-06-04T00:45:43.273Z,21.28
2018-06-04T00:48:11.667Z,21.30
2018-06-04T00:50:40.122Z,21.28
2018-06-04T00:53:08.572Z,21.30
2018-06-04T00:55:48.262Z,21.24
2018-06-04T00:58:16.752Z,21.33
2018-06-04T01:00:45.257Z,21.07
2018-06-04T01:03:13.671Z,21.09
2018-06-04T01:05:42.080Z,21.14
2018-06-04T01:08:10.505Z,20.97
2018-06-04T01:10:38.999Z,20.90
2018-06-04T01:13:07.459Z,20.85
2018-06-04T01:15:35.883Z,20.76
2018-06-04T01:18:04.427Z,20.86
2018-06-04T01:20:32.996Z,20.86
2018-06-04T01:23:01.422Z,20.92
2018-06-04T01:25:30.190Z,20.75
2018-06-04T01:27:58.676Z,20.74
2018-06-04T01:30:27.160Z,20.79
2018-06-04T01:32:55.700Z,20.72
2018-06-04T01:35:24.240Z,20.69
2018-06-04T01:37:52.817Z,20.73
2018-06-04T01:40:21.371Z,20.75
2018-06-04T01:42:49.914Z,20.76
2018-06-04T01:45:18.401Z,20.82
2018-06-04T01:47:46.901Z,20.87
2018-06-04T01:50:15.403Z,20.70
2018-06-04T01:52:43.916Z,20.61
2018-06-04T01:55:12.951Z,20.53
2018-06-04T01:57:41.440Z,20.50
2018-06-04T02:00:10.327Z,20.52
2018-06-04T02:02:38.833Z,20.42
2018-06-04T02:05:07.643Z,20.30
2018-06-04T02:07:36.121Z,20.27
2018-06-04T02:10:04.818Z,20.33
2018-06-04T02:12:33.263Z,20.28
2018-06-04T02:15:01.713Z,20.22
2018-06-04T02:17:30.213Z,20.19
2018-06-04T02:19:58.715Z,20.16
2018-06-04T02:22:27.188Z,20.20
2018-06-04T02:24:55.757Z,20.24
2018-06-04T02:27:24.195Z,20.24
2018-06-04T02:29:52.745Z,20.18
2018-06-04T02:32:21.206Z,20.15
2018-06-04T02:34:49.653Z,20.01
2018-06-04T02:37:18.080Z,19.86
2018-06-04T02:39:46.778Z,19.86
2018-06-04T02:42:15.254Z,19.95
2018-06-04T02:44:43.813Z,19.95
2018-06-04T02:47:12.261Z,19.92
2018-06-04T02:49:41.386Z,19.93
2018-06-04T02:52:09.998Z,20.02
2018-06-04T02:54:38.493Z,19.88
2018-06-04T02:57:07.057Z,19.81
2018-06-04T02:59:35.608Z,19.84
2018-06-04T03:02:04.274Z,19.91
2018-06-04T03:04:32.796Z,19.89
2018-06-04T03:07:01.235Z,19.92
2018-06-04T03:09:30.034Z,19.84
2018-06-04T03:11:58.503Z,19.71
2018-06-04T03:14:27.216Z,19.63
2018-06-04T03:16:55.609Z,19.67
2018-06-04T03:19:24.138Z,19.63
2018-06-04T03:21:52.608Z,19.63
2018-06-04T03:24:21.041Z,19.67
2018-06-04T03:26:49.554Z,19.71
2018-06-04T03:29:18.279Z,19.73
2018-06-04T03:31:46.737Z,19.70
2018-06-04T03:34:15.610Z,19.72
2018-06-04T03:36:44.309Z,19.65
2018-06-04T03:39:12.760Z,19.55
2018-06-04T03:41:41.246Z,19.51
2018-06-04T03:44:09.786Z,19.43
2018-06-04T03:46:38.445Z,19.36
2018-06-04T03:49:06.906Z,19.38
2018-06-04T03:51:35.507Z,19.34
2018-06-04T03:54:04.188Z,19.43
2018-06-04T03:56:33.257Z,19.39
2018-06-04T03:59:02.295Z,19.40
2018-06-04T04:01:30.820Z,19.49
2018-06-04T04:04:02.776Z,19.53
2018-06-04T04:06:31.402Z,19.52
2018-06-04T04:08:59.855Z,19.59
2018-06-04T04:11:28.359Z,19.64
2018-06-04T04:13:56.839Z,19.63
2018-06-04T04:16:25.315Z,19.67
2018-06-04T04:18:54.380Z,19.66
2018-06-04T04:21:23.694Z,19.73
2018-06-04T04:23:52.251Z,19.78
2018-06-04T04:26:21.136Z,19.82
2018-06-04T04:28:50.594Z,19.83
2018-06-04T04:31:19.796Z,19.88
2018-06-04T04:33:48.519Z,19.90
2018-06-04T04:36:16.962Z,19.95
2018-06-04T04:38:45.399Z,20.06
2018-06-04T04:41:13.864Z,20.01
2018-06-04T04:43:42.340Z,19.95
2018-06-04T04:46:11.190Z,19.93
2018-06-04T04:48:39.580Z,19.92
2018-06-04T04:51:08.078Z,20.02
2018-06-04T04:53:36.954Z,19.96
2018-06-04T04:56:06.459Z,19.97
2018-06-04T04:58:34.891Z,19.99
2018-06-04T05:01:03.506Z,20.13
2018-06-04T05:03:32.106Z,20.15
2018-06-04T05:06:00.549Z,19.94
2018-06-04T05:08:28.980Z,20.01
2018-06-04T05:10:57.444Z,20.08
2018-06-04T05:13:26.008Z,20.12
2018-06-04T05:15:54.469Z,20.16
2018-06-04T05:18:23.446Z,20.08
2018-06-04T05:20:52.367Z,20.06
2018-06-04T05:23:20.777Z,20.12
2018-06-04T05:25:49.213Z,20.19
2018-06-04T05:28:17.740Z,20.17
2018-06-04T05:30:46.214Z,20.24
2018-06-04T05:33:14.586Z,20.38
2018-06-04T05:35:43.004Z,20.40
2018-06-04T05:38:11.457Z,20.48
2018-06-04T05:40:39.940Z,20.37
2018-06-04T05:43:09.461Z,20.46
2018-06-04T05:45:37.888Z,20.51
2018-06-04T05:48:06.391Z,20.60
2018-06-04T05:50:34.833Z,20.42
2018-06-04T05:53:03.240Z,20.48
2018-06-04T05:55:31.672Z,20.54
2018-06-04T05:58:00.120Z,20.38
2018-06-04T06:00:28.477Z,20.81
2018-06-04T06:02:57.581Z,20.73
2018-06-04T06:05:26.042Z,20.81
2018-06-04T06:07:54.459Z,21.00
2018-06-04T06:10:23.584Z,20.96
2018-06-04T06:12:52.059Z,21.11
2018-06-04T06:15:20.492Z,21.15
2018-06-04T06:17:49.550Z,21.30
2018-06-04T06:20:17.982Z,21.34
2018-06-04T06:22:46.425Z,21.48
2018-06-04T06:25:14.861Z,21.65
2018-06-04T06:27:43.307Z,21.64
2018-06-04T06:30:11.824Z,21.68
2018-06-04T06:32:40.239Z,21.67
2018-06-04T06:35:08.903Z,21.81
2018-06-04T06:37:37.324Z,21.86
2018-06-04T06:40:06.217Z,21.86
2018-06-04T06:42:34.695Z,21.87
2018-06-04T06:45:03.221Z,21.85
2018-06-04T06:47:31.645Z,22.02
2018-06-04T06:50:00.061Z,22.08
2018-06-04T06:52:28.500Z,22.20
2018-06-04T06:54:56.945Z,22.29
2018-06-04T06:57:26.087Z,22.33
2018-06-04T06:59:54.486Z,22.27
2018-06-04T07:02:22.925Z,22.26
2018-06-04T07:04:51.339Z,22.34
2018-06-04T07:07:19.804Z,22.50
2018-06-04T07:09:48.194Z,22.58
2018-06-04T07:12:16.631Z,22.67
2018-06-04T07:14:45.103Z,22.69
2018-06-04T07:17:13.548Z,22.76
2018-06-04T07:19:41.954Z,22.63
2018-06-04T07:22:10.413Z,22.74
2018-06-04T07:24:38.836Z,22.67
2018-06-04T07:27:07.291Z,22.68
2018-06-04T07:29:35.678Z,22.87
2018-06-04T07:32:04.178Z,23.04
2018-06-04T07:34:32.598Z,23.21
2018-06-04T07:37:01.036Z,23.40
2018-06-04T07:39:29.440Z,23.53
2018-06-04T07:41:57.966Z,23.53
2018-06-04T07:44:26.423Z,23.50
2018-06-04T07:46:54.790Z,23.63
2018-06-04T07:49:23.585Z,23.73
2018-06-04T07:51:52.095Z,23.89
2018-06-04T07:54:20.675Z,24.00
2018-06-04T07:56:49.877Z,24.06
2018-06-04T07:59:18.415Z,24.07
2018-06-04T08:01:47.043Z,24.17
2018-06-04T08:04:15.473Z,24.31
2018-06-04T08:06:43.896Z,24.32
2018-06-04T08:09:12.372Z,24.48
2018-06-04T08:11:40.862Z,24.61
2018-06-04T08:14:09.521Z,24.78
2018-06-04T08:16:37.956Z,24.91
2018-06-04T08:19:06.329Z,24.98
2018-06-04T08:21:37.644Z,25.09
2018-06-04T08:24:06.378Z,25.19
2018-06-04T08:26:34.905Z,25.16
2018-06-04T08:29:03.294Z,25.23
2018-06-04T08:31:32.075Z,25.43
2018-06-04T08:34:00.484Z,25.56
2018-06-04T08:36:28.927Z,25.62
2018-06-04T08:38:57.436Z,25.57
2018-06-04T08:41:25.855Z,25.75
2018-06-04T08:43:54.394Z,25.82
2018-06-04T08:46:22.797Z,25.89
2018-06-04T08:48:51.229Z,26.11
2018-06-04T08:51:19.614Z,26.15
2018-06-04T08:53:48.059Z,26.19
2018-06-04T08:56:16.660Z,26.24
2018-06-04T08:58:45.016Z,26.19
2018-06-04T09:01:13.455Z,26.25
2018-06-04T09:03:42.549Z,26.41
2018-06-04T09:06:11.001Z,26.53
2018-06-04T09:08:39.418Z,26.56
2018-06-04T09:11:07.879Z,26.59
2018-06-04T09:13:36.317Z,26.71
2018-06-04T09:16:04.722Z,26.82
2018-06-04T09:18:33.397Z,26.88
2018-06-04T09:21:01.809Z,27.03
2018-06-04T09:23:30.277Z,27.14
2018-06-04T09:25:58.992Z,27.22
2018-06-04T09:28:27.449Z,27.17
2018-06-04T09:30:55.981Z,27.15
2018-06-04T09:33:24.460Z,27.30
2018-06-04T09:35:53.013Z,27.44
2018-06-04T09:38:21.509Z,27.54
2018-06-04T09:40:49.960Z,27.66
2018-06-04T09:43:18.552Z,27.81
2018-06-04T09:45:47.015Z,27.62
2018-06-04T09:48:15.422Z,27.68
2018-06-04T09:50:44.729Z,27.72
2018-06-04T09:53:13.207Z,27.86
2018-06-04T09:55:41.663Z,27.94
2018-06-04T09:58:10.464Z,28.12
2018-06-04T10:00:39.276Z,28.23
2018-06-04T10:03:07.715Z,28.25
2018-06-04T10:05:36.231Z,28.28
2018-06-04T10:08:04.711Z,28.25
2018-06-04T10:10:33.160Z,28.37
2018-06-04T10:13:01.592Z,28.39
2018-06-04T10:15:30.154Z,28.35
2018-06-04T10:17:58.635Z,28.35
2018-06-04T10:20:27.473Z,28.41
2018-06-04T10:22:56.189Z,28.52
2018-06-04T10:25:24.603Z,28.73
2018-06-04T10:27:53.035Z,28.89
2018-06-04T10:30:22.213Z,28.95
2018-06-04T10:32:51.294Z,28.94
2018-06-04T10:35:20.011Z,28.83
2018-06-04T10:37:49.182Z,28.83
2018-06-04T10:40:17.754Z,28.96
2018-06-04T10:42:46.680Z,28.98
2018-06-04T10:45:15.118Z,29.11
2018-06-04T10:47:43.565Z,28.98
2018-06-04T10:50:12.170Z,28.89
2018-06-04T10:52:40.625Z,28.82
2018-06-04T10:55:09.094Z,29.02
2018-06-04T10:57:37.573Z,29.13
2018-06-04T11:00:06.095Z,29.21
2018-06-04T11:02:34.517Z,29.02
2018-06-04T11:05:02.986Z,28.99
2018-06-04T11:07:31.462Z,28.99
2018-06-04T11:09:59.969Z,28.90
2018-06-04T11:12:28.702Z,28.91
2018-06-04T11:14:57.184Z,29.00
2018-06-04T11:17:25.610Z,29.10
2018-06-04T11:19:54.135Z,29.37
2018-06-04T11:22:22.601Z,29.55
2018-06-04T11:24:51.073Z,29.77
2018-06-04T11:27:19.696Z,29.81
2018-06-04T11:29:48.172Z,29.75
2018-06-04T11:32:16.635Z,29.63
2018-06-04T11:34:45.159Z,29.77
2018-06-04T11:37:13.622Z,29.87
2018-06-04T11:39:42.082Z,29.78
2018-06-04T11:42:10.724Z,29.43
2018-06-04T11:44:39.154Z,29.39
2018-06-04T11:47:08.229Z,29.53
2018-06-04T11:49:36.659Z,29.59
2018-06-04T11:52:05.107Z,29.69
2018-06-04T11:54:33.607Z,29.71
2018-06-04T11:57:02.191Z,29.79
2018-06-04T11:59:30.648Z,29.70
2018-06-04T12:01:59.604Z,29.88
2018-06-04T12:04:28.222Z,29.83
2018-06-04T12:06:56.668Z,30.01
2018-06-04T12:09:25.142Z,30.00
2018-06-04T12:11:53.627Z,30.06
2018-06-04T12:14:22.069Z,30.13
2018-06-04T12:16:50.577Z,29.92
2018-06-04T12:19:19.011Z,30.16
2018-06-04T12:21:47.447Z,30.19
2018-06-04T12:24:16.000Z,30.39
2018-06-04T12:26:44.477Z,30.40
2018-06-04T12:29:12.890Z,30.37
2018-06-04T12:31:41.286Z,30.20
2018-06-04T12:34:09.689Z,30.35
2018-06-04T12:36:38.132Z,30.43
2018-06-04T12:39:08.952Z,30.44
2018-06-04T12:41:37.418Z,30.66
2018-06-04T12:44:05.854Z,30.86
2018-06-04T12:46:34.634Z,31.45
2018-06-04T12:49:03.076Z,32.30
2018-06-04T12:51:33.288Z,33.03
2018-06-04T12:54:01.772Z,34.05
2018-06-04T12:56:30.251Z,34.69
2018-06-04T12:58:58.711Z,35.02
2018-06-04T13:01:27.194Z,35.65
2018-06-04T13:03:55.676Z,36.58
2018-06-04T13:06:24.102Z,37.13
2018-06-04T13:08:52.562Z,36.50
2018-06-04T13:11:20.985Z,34.40
2018-06-04T13:13:49.536Z,33.54
2018-06-04T13:16:18.029Z,33.92
2018-06-04T13:18:46.496Z,34.28
2018-06-04T13:21:15.092Z,34.73
2018-06-04T13:23:43.500Z,34.64
2018-06-04T13:26:11.924Z,34.95
2018-06-04T13:28:40.418Z,34.47
2018-06-04T13:31:08.822Z,34.33
2018-06-04T13:33:37.352Z,34.77
2018-06-04T13:36:05.922Z,34.90
2018-06-04T13:38:34.319Z,34.36
2018-06-04T13:41:02.789Z,34.48
2018-06-04T13:43:31.214Z,35.26
2018-06-04T13:45:59.667Z,35.90
2018-06-04T13:48:28.075Z,35.83
2018-06-04T13:50:56.562Z,36.31
2018-06-04T13:53:25.018Z,36.53
2018-06-04T13:55:53.511Z,36.93
2018-06-04T13:58:21.979Z,37.03
2018-06-04T14:00:51.087Z,37.34
2018-06-04T14:03:19.543Z,37.73
2018-06-04T14:05:47.977Z,35.89
2018-06-04T14:08:16.637Z,35.31
2018-06-04T14:10:45.097Z,34.16
2018-06-04T14:13:13.549Z,33.54
2018-06-04T14:15:42.854Z,33.63
2018-06-04T14:18:11.343Z,33.59
2018-06-04T14:20:40.944Z,33.50
2018-06-04T14:23:09.424Z,33.42
2018-06-04T14:25:37.850Z,33.33
2018-06-04T14:28:06.302Z,33.05
2018-06-04T14:30:34.829Z,32.78
2018-06-04T14:33:03.279Z,33.23
2018-06-04T14:35:31.765Z,34.13
2018-06-04T14:38:00.216Z,34.52
2018-06-04T14:40:28.734Z,34.44
2018-06-04T14:42:57.260Z,34.64
2018-06-04T14:45:25.721Z,34.62
2018-06-04T14:47:54.183Z,35.00
2018-06-04T14:50:22.749Z,35.05
2018-06-04T14:52:51.289Z,34.70
2018-06-04T14:55:19.842Z,34.87
2018-06-04T14:57:48.503Z,34.87
2018-06-04T15:00:16.959Z,34.74
2018-06-04T15:02:45.432Z,34.21
2018-06-04T15:05:13.969Z,33.57
2018-06-04T15:07:42.424Z,32.74
2018-06-04T15:10:10.885Z,32.65
2018-06-04T15:12:39.330Z,32.37
2018-06-04T15:15:07.987Z,32.47
2018-06-04T15:17:36.447Z,32.85
2018-06-04T15:20:05.143Z,32.95
2018-06-04T15:22:33.575Z,32.85
2018-06-04T15:25:02.470Z,32.65
2018-06-04T15:27:36.251Z,32.18
2018-06-04T15:30:06.444Z,32.00
2018-06-04T15:32:38.550Z,31.78
2018-06-04T15:35:07.575Z,31.97
2018-06-04T15:37:38.922Z,31.38
2018-06-04T15:40:07.445Z,31.28
2018-06-04T15:42:36.955Z,31.40
2018-06-04T15:45:06.612Z,31.35
2018-06-04T15:47:36.521Z,31.67
2018-06-04T15:50:05.591Z,31.46
2018-06-04T15:52:34.953Z,30.56
2018-06-04T15:55:03.829Z,31.22
2018-06-04T15:57:33.696Z,31.26
2018-06-04T16:00:05.096Z,31.48
2018-06-04T16:02:34.306Z,31.85
2018-06-04T16:05:04.007Z,31.31
2018-06-04T16:07:50.102Z,30.43
2018-06-04T16:10:23.847Z,31.31
2018-06-04T16:12:52.435Z,31.14
2018-06-04T16:15:34.572Z,31.31
2018-06-04T16:21:46.047Z,30.78
2018-06-04T16:24:14.688Z,31.08
2018-06-04T16:26:46.137Z,30.12
2018-06-04T16:29:17.461Z,30.68
2018-06-04T16:31:48.388Z,30.64
2018-06-04T16:34:17.035Z,30.56
2018-06-04T16:36:45.641Z,30.54
2018-06-04T16:39:14.493Z,30.38
2018-06-04T16:41:42.988Z,30.20
2018-06-04T16:44:11.525Z,30.08
2018-06-04T16:46:46.365Z,29.89
2018-06-04T16:49:15.813Z,29.70
2018-06-04T16:51:45.201Z,29.73
2018-06-04T16:54:17.833Z,29.81
2018-06-04T16:56:47.297Z,29.76
2018-06-04T16:59:16.219Z,30.04
2018-06-04T17:01:44.616Z,30.18
2018-06-04T17:04:13.653Z,30.28
2018-06-04T17:09:40.906Z,30.04
2018-06-04T17:12:10.029Z,29.98
2018-06-04T17:14:38.801Z,30.00
2018-06-04T17:17:08.818Z,30.14
2018-06-04T17:19:40.535Z,30.06
2018-06-04T17:22:16.835Z,29.99
2018-06-04T17:24:47.789Z,29.89
2018-06-04T17:27:18.655Z,29.92
2018-06-04T17:29:51.025Z,29.62
2018-06-04T17:32:24.214Z,29.46
2018-06-04T17:34:53.685Z,29.66
2018-06-04T17:37:22.269Z,29.40
2018-06-04T17:39:50.685Z,29.47
2018-06-04T17:42:22.912Z,29.57
2018-06-04T17:44:53.098Z,29.22
2018-06-04T17:47:27.666Z,29.36
2018-06-04T17:49:56.158Z,29.22
2018-06-04T17:52:25.173Z,29.45
2018-06-04T17:54:53.692Z,29.44
2018-06-04T17:57:22.196Z,29.48
2018-06-04T17:59:50.634Z,29.23
2018-06-04T18:02:19.424Z,29.47
2018-06-04T18:04:47.983Z,29.15
2018-06-04T18:07:16.634Z,28.88
2018-06-04T18:09:46.051Z,28.88
2018-06-04T18:12:15.544Z,28.85
2018-06-04T18:14:45.172Z,28.65
2018-06-04T18:17:13.741Z,28.63
2018-06-04T18:19:42.513Z,28.72
2018-06-04T18:22:12.374Z,28.87
2018-06-04T18:24:47.759Z,28.73
2018-06-04T18:27:19.267Z,28.65
2018-06-04T18:29:48.198Z,28.60
2018-06-04T18:32:17.282Z,28.72
2018-06-04T18:34:48.012Z,28.72
2018-06-04T18:37:16.946Z,28.76
2018-06-04T18:39:46.135Z,28.79
2018-06-04T18:42:15.233Z,28.88
2018-06-04T18:44:44.243Z,28.75
2018-06-04T18:47:14.356Z,28.79
2018-06-04T18:49:43.730Z,28.72
2018-06-04T18:52:14.469Z,28.56
2018-06-04T18:54:43.775Z,28.60
2018-06-04T18:57:13.936Z,28.62
2018-06-04T18:59:43.571Z,28.64
2018-06-04T19:02:16.524Z,28.36
2018-06-04T19:04:57.243Z,27.60
2018-06-04T19:07:25.818Z,28.37
2018-06-04T19:09:54.318Z,28.45
2018-06-04T19:12:23.280Z,28.51
2018-06-04T19:14:51.886Z,28.51
2018-06-04T19:17:20.368Z,28.48
2018-06-04T19:19:48.926Z,28.53
2018-06-04T19:22:17.573Z,28.55
2018-06-04T19:24:47.063Z,28.47
2018-06-04T19:27:15.729Z,28.38
2018-06-04T19:29:44.503Z,28.04
2018-06-04T19:32:13.066Z,28.13
2018-06-04T19:34:41.659Z,27.92
2018-06-04T19:37:10.573Z,27.97
2018-06-04T19:39:40.006Z,27.93
2018-06-04T19:42:08.556Z,27.83
2018-06-04T19:44:37.208Z,27.90
2018-06-04T19:47:10.032Z,27.60
2018-06-04T19:49:42.561Z,27.74
2018-06-04T19:52:14.949Z,27.78
2018-06-04T19:54:43.683Z,27.82
2018-06-04T19:57:12.194Z,27.76
2018-06-04T19:59:40.749Z,27.74
2018-06-04T20:02:09.256Z,27.71
2018-06-04T20:04:37.758Z,27.68
2018-06-04T20:07:12.973Z,27.64
2018-06-04T20:09:41.514Z,27.59
2018-06-04T20:12:10.042Z,27.54
2018-06-04T20:14:38.534Z,27.47
2018-06-04T20:17:07.148Z,27.34
2018-06-04T20:19:36.228Z,27.36
2018-06-04T20:22:04.870Z,27.38
2018-06-04T20:24:33.357Z,27.37
2018-06-04T20:27:01.868Z,27.35
2018-06-04T20:29:30.340Z,27.26
2018-06-04T20:31:58.961Z,27.23
2018-06-04T20:34:28.339Z,27.20
2018-06-04T20:36:56.879Z,27.16
2018-06-04T20:39:25.399Z,27.13
2018-06-04T20:41:54.270Z,27.10
2018-06-04T20:44:23.595Z,27.01
2018-06-04T20:46:52.187Z,26.99
2018-06-04T20:49:20.736Z,26.95
2018-06-04T20:51:49.300Z,26.92
2018-06-04T20:54:18.609Z,26.88
2018-06-04T20:56:47.242Z,26.81
2018-06-04T20:59:16.217Z,26.77
2018-06-04T21:01:45.052Z,26.77
2018-06-04T21:04:13.590Z,26.74
2018-06-04T21:06:42.150Z,26.69
2018-06-04T21:09:11.243Z,26.65
2018-06-04T21:11:39.885Z,26.58
2018-06-04T21:14:08.416Z,26.54
2018-06-04T21:16:37.021Z,26.49
2018-06-04T21:19:05.936Z,26.34
2018-06-04T21:21:34.531Z,26.30
2018-06-04T21:24:03.658Z,26.27
2018-06-04T21:26:33.250Z,26.22
2018-06-04T21:29:01.856Z,26.13
2018-06-04T21:31:30.648Z,26.11
2018-06-04T21:33:59.688Z,26.04
2018-06-04T21:36:29.442Z,26.00
2018-06-04T21:38:57.973Z,25.97
2018-06-04T21:41:28.289Z,25.94
2018-06-04T21:43:57.656Z,25.86
2018-06-04T21:46:27.024Z,25.76
2018-06-04T21:48:55.977Z,25.77
2018-06-04T21:51:25.037Z,25.61
2018-06-04T21:53:54.229Z,25.60
2018-06-04T21:56:23.593Z,25.60
2018-06-04T21:58:52.526Z,25.62
2018-06-04T22:01:21.067Z,25.52
2018-06-04T22:03:50.342Z,25.48
2018-06-04T22:06:18.957Z,25.36
2018-06-04T22:08:47.441Z,25.28
2018-06-04T22:11:16.072Z,25.31
2018-06-04T22:13:44.554Z,25.19
2018-06-04T22:16:13.087Z,25.16
2018-06-04T22:18:41.590Z,25.14
2018-06-04T22:21:10.090Z,25.15
2018-06-04T22:23:38.961Z,25.00
2018-06-04T22:26:07.483Z,24.85
2018-06-04T22:28:36.516Z,24.90
2018-06-04T22:31:06.574Z,24.79
2018-06-04T22:33:35.252Z,24.84
2018-06-04T22:36:03.878Z,24.85
2018-06-04T22:38:36.466Z,24.77
2018-06-04T22:41:05.697Z,24.75
2018-06-04T22:43:34.346Z,24.64
2018-06-04T22:46:03.195Z,24.64
2018-06-04T22:48:32.044Z,24.57
2018-06-04T22:51:00.910Z,24.51
2018-06-04T22:53:29.425Z,24.45
2018-06-04T22:55:57.865Z,24.49
2018-06-04T22:58:26.315Z,24.41
2018-06-04T23:00:54.797Z,24.40
2018-06-04T23:03:24.000Z,24.38
2018-06-04T23:05:52.541Z,24.33
2018-06-04T23:08:21.120Z,24.30
2018-06-04T23:10:49.601Z,24.28
2018-06-04T23:13:18.130Z,24.17
2018-06-04T23:15:46.619Z,24.20
2018-06-04T23:18:15.244Z,24.21
2018-06-04T23:20:43.742Z,24.23
2018-06-04T23:23:13.477Z,24.16
2018-06-04T23:25:41.976Z,24.12
2018-06-04T23:28:10.432Z,24.10
2018-06-04T23:30:38.867Z,24.06
2018-06-04T23:33:07.387Z,23.97
2018-06-04T23:35:35.999Z,23.88
2018-06-04T23:38:04.765Z,23.90
2018-06-04T23:40:33.572Z,23.93
2018-06-04T23:43:02.274Z,23.87
2018-06-04T23:45:30.902Z,23.82
2018-06-04T23:48:00.152Z,23.78
2018-06-04T23:50:28.630Z,23.77
2018-06-04T23:52:57.998Z,23.67
2018-06-04T23:55:26.451Z,23.58
2018-06-04T23:57:54.937Z,23.54
